sensor_id;sensor_type;location;lat;lon;timestamp;P1;durP1;ratioP1;P2;durP2;ratioP2
11010;SDS011;5558;42.702;23.178;2023-07-22T00:00:03;8.53;;;5.13;;
11010;SDS011;5558;42.702;23.178;2023-07-22T00:02:34;10.80;;;5.20;;
11010;SDS011;5558;42.702;23.178;2023-07-22T00:05:02;8.43;;;4.93;;
11010;SDS011;5558;42.702;23.178;2023-07-22T00:07:30;10.17;;;5.50;;
11010;SDS011;5558;42.702;23.178;2023-07-22T00:09:56;9.93;;;5.30;;
11010;SDS011;5558;42.702;23.178;2023-07-22T00:12:23;11.00;;;5.10;;
11010;SDS011;5558;42.702;23.178;2023-07-22T00:14:51;6.97;;;5.00;;
11010;SDS011;5558;42.702;23.178;2023-07-22T00:17:18;9.63;;;5.47;;
11010;SDS011;5558;42.702;23.178;2023-07-22T00:19:46;9.93;;;5.43;;
11010;SDS011;5558;42.702;23.178;2023-07-22T00:22:14;11.83;;;5.07;;
11010;SDS011;5558;42.702;23.178;2023-07-22T00:24:41;8.47;;;4.83;;
11010;SDS011;5558;42.702;23.178;2023-07-22T00:27:08;9.27;;;5.23;;
11010;SDS011;5558;42.702;23.178;2023-07-22T00:29:37;8.33;;;5.13;;
11010;SDS011;5558;42.702;23.178;2023-07-22T00:32:05;9.67;;;5.07;;
11010;SDS011;5558;42.702;23.178;2023-07-22T00:34:33;9.73;;;5.43;;
11010;SDS011;5558;42.702;23.178;2023-07-22T00:37:00;11.27;;;5.30;;
11010;SDS011;5558;42.702;23.178;2023-07-22T00:39:28;8.53;;;5.17;;
11010;SDS011;5558;42.702;23.178;2023-07-22T00:41:55;9.17;;;5.30;;
11010;SDS011;5558;42.702;23.178;2023-07-22T00:44:21;8.40;;;5.17;;
11010;SDS011;5558;42.702;23.178;2023-07-22T00:46:48;8.97;;;5.27;;
11010;SDS011;5558;42.702;23.178;2023-07-22T00:49:19;8.23;;;5.30;;
11010;SDS011;5558;42.702;23.178;2023-07-22T00:51:46;8.87;;;5.50;;
11010;SDS011;5558;42.702;23.178;2023-07-22T00:54:12;9.23;;;5.37;;
11010;SDS011;5558;42.702;23.178;2023-07-22T00:56:41;9.03;;;5.60;;
11010;SDS011;5558;42.702;23.178;2023-07-22T00:59:10;9.63;;;5.43;;
11010;SDS011;5558;42.702;23.178;2023-07-22T01:01:37;9.77;;;5.70;;
11010;SDS011;5558;42.702;23.178;2023-07-22T01:04:04;11.27;;;5.47;;
11010;SDS011;5558;42.702;23.178;2023-07-22T01:06:30;9.03;;;5.33;;
11010;SDS011;5558;42.702;23.178;2023-07-22T01:08:58;9.57;;;5.63;;
11010;SDS011;5558;42.702;23.178;2023-07-22T01:11:25;7.70;;;5.40;;
11010;SDS011;5558;42.702;23.178;2023-07-22T01:13:53;8.00;;;5.50;;
11010;SDS011;5558;42.702;23.178;2023-07-22T01:16:23;9.53;;;5.40;;
11010;SDS011;5558;42.702;23.178;2023-07-22T01:18:51;7.90;;;5.20;;
11010;SDS011;5558;42.702;23.178;2023-07-22T01:21:20;9.33;;;5.67;;
11010;SDS011;5558;42.702;23.178;2023-07-22T01:23:49;8.93;;;5.37;;
11010;SDS011;5558;42.702;23.178;2023-07-22T01:26:17;8.93;;;5.97;;
11010;SDS011;5558;42.702;23.178;2023-07-22T01:28:44;9.97;;;5.70;;
11010;SDS011;5558;42.702;23.178;2023-07-22T01:31:11;6.47;;;5.10;;
11010;SDS011;5558;42.702;23.178;2023-07-22T01:33:38;9.17;;;5.53;;
11010;SDS011;5558;42.702;23.178;2023-07-22T01:36:04;10.07;;;5.80;;
11010;SDS011;5558;42.702;23.178;2023-07-22T01:38:32;7.63;;;5.80;;
11010;SDS011;5558;42.702;23.178;2023-07-22T01:41:01;8.27;;;5.50;;
11010;SDS011;5558;42.702;23.178;2023-07-22T01:43:27;9.97;;;5.73;;
11010;SDS011;5558;42.702;23.178;2023-07-22T01:45:54;8.03;;;5.30;;
11010;SDS011;5558;42.702;23.178;2023-07-22T01:48:21;6.17;;;5.23;;
11010;SDS011;5558;42.702;23.178;2023-07-22T01:50:49;10.10;;;5.57;;
11010;SDS011;5558;42.702;23.178;2023-07-22T01:53:16;8.47;;;5.60;;
11010;SDS011;5558;42.702;23.178;2023-07-22T01:55:42;8.77;;;5.60;;
11010;SDS011;5558;42.702;23.178;2023-07-22T01:58:11;9.40;;;5.80;;
11010;SDS011;5558;42.702;23.178;2023-07-22T02:00:38;9.73;;;5.20;;
11010;SDS011;5558;42.702;23.178;2023-07-22T02:03:04;7.60;;;5.13;;
11010;SDS011;5558;42.702;23.178;2023-07-22T02:05:31;8.87;;;5.57;;
11010;SDS011;5558;42.702;23.178;2023-07-22T02:07:58;9.70;;;6.23;;
11010;SDS011;5558;42.702;23.178;2023-07-22T02:10:24;10.07;;;5.60;;
11010;SDS011;5558;42.702;23.178;2023-07-22T02:12:51;8.20;;;5.60;;
11010;SDS011;5558;42.702;23.178;2023-07-22T02:15:20;8.27;;;5.53;;
11010;SDS011;5558;42.702;23.178;2023-07-22T02:17:49;7.23;;;5.50;;
11010;SDS011;5558;42.702;23.178;2023-07-22T02:20:16;9.37;;;5.57;;
11010;SDS011;5558;42.702;23.178;2023-07-22T02:22:43;10.63;;;5.80;;
11010;SDS011;5558;42.702;23.178;2023-07-22T02:25:10;9.47;;;5.70;;
11010;SDS011;5558;42.702;23.178;2023-07-22T02:27:36;6.77;;;5.43;;
11010;SDS011;5558;42.702;23.178;2023-07-22T02:30:05;7.43;;;5.00;;
11010;SDS011;5558;42.702;23.178;2023-07-22T02:32:36;13.73;;;5.83;;
11010;SDS011;5558;42.702;23.178;2023-07-22T02:35:04;9.07;;;5.67;;
11010;SDS011;5558;42.702;23.178;2023-07-22T02:37:32;7.33;;;5.53;;
11010;SDS011;5558;42.702;23.178;2023-07-22T02:39:58;8.03;;;5.90;;
11010;SDS011;5558;42.702;23.178;2023-07-22T02:42:25;8.43;;;5.97;;
11010;SDS011;5558;42.702;23.178;2023-07-22T02:44:52;11.53;;;6.10;;
11010;SDS011;5558;42.702;23.178;2023-07-22T02:47:18;9.57;;;5.70;;
11010;SDS011;5558;42.702;23.178;2023-07-22T02:49:46;6.97;;;5.33;;
11010;SDS011;5558;42.702;23.178;2023-07-22T02:52:13;9.53;;;5.83;;
11010;SDS011;5558;42.702;23.178;2023-07-22T02:54:41;11.47;;;6.20;;
11010;SDS011;5558;42.702;23.178;2023-07-22T02:57:08;11.03;;;5.90;;
11010;SDS011;5558;42.702;23.178;2023-07-22T02:59:34;10.47;;;6.13;;
11010;SDS011;5558;42.702;23.178;2023-07-22T03:02:02;9.50;;;5.70;;
11010;SDS011;5558;42.702;23.178;2023-07-22T03:04:29;13.40;;;6.20;;
11010;SDS011;5558;42.702;23.178;2023-07-22T03:06:57;10.30;;;6.10;;
11010;SDS011;5558;42.702;23.178;2023-07-22T03:09:24;9.00;;;5.73;;
11010;SDS011;5558;42.702;23.178;2023-07-22T03:11:51;10.47;;;6.27;;
11010;SDS011;5558;42.702;23.178;2023-07-22T03:14:17;8.23;;;6.03;;
11010;SDS011;5558;42.702;23.178;2023-07-22T03:16:47;9.50;;;6.17;;
11010;SDS011;5558;42.702;23.178;2023-07-22T03:19:13;10.20;;;6.50;;
11010;SDS011;5558;42.702;23.178;2023-07-22T03:21:40;12.10;;;6.87;;
11010;SDS011;5558;42.702;23.178;2023-07-22T03:24:08;10.40;;;6.73;;
11010;SDS011;5558;42.702;23.178;2023-07-22T03:26:35;10.47;;;6.43;;
11010;SDS011;5558;42.702;23.178;2023-07-22T03:29:02;10.47;;;6.57;;
11010;SDS011;5558;42.702;23.178;2023-07-22T03:31:30;14.00;;;6.77;;
11010;SDS011;5558;42.702;23.178;2023-07-22T03:33:56;12.10;;;6.83;;
11010;SDS011;5558;42.702;23.178;2023-07-22T03:36:23;10.57;;;6.63;;
11010;SDS011;5558;42.702;23.178;2023-07-22T03:38:50;10.57;;;6.03;;
11010;SDS011;5558;42.702;23.178;2023-07-22T03:41:18;12.37;;;6.50;;
11010;SDS011;5558;42.702;23.178;2023-07-22T03:43:45;11.07;;;6.77;;
11010;SDS011;5558;42.702;23.178;2023-07-22T03:46:12;10.57;;;6.13;;
11010;SDS011;5558;42.702;23.178;2023-07-22T03:48:39;9.17;;;6.20;;
11010;SDS011;5558;42.702;23.178;2023-07-22T03:51:05;10.20;;;5.93;;
11010;SDS011;5558;42.702;23.178;2023-07-22T03:53:32;12.37;;;5.90;;
11010;SDS011;5558;42.702;23.178;2023-07-22T03:55:59;12.13;;;5.53;;
11010;SDS011;5558;42.702;23.178;2023-07-22T03:58:27;9.63;;;5.40;;
11010;SDS011;5558;42.702;23.178;2023-07-22T04:00:54;11.30;;;5.57;;
11010;SDS011;5558;42.702;23.178;2023-07-22T04:03:21;10.17;;;5.60;;
11010;SDS011;5558;42.702;23.178;2023-07-22T04:05:53;8.30;;;5.43;;
11010;SDS011;5558;42.702;23.178;2023-07-22T04:08:20;8.83;;;5.17;;
11010;SDS011;5558;42.702;23.178;2023-07-22T04:10:50;11.80;;;5.40;;
11010;SDS011;5558;42.702;23.178;2023-07-22T04:13:18;12.70;;;5.97;;
11010;SDS011;5558;42.702;23.178;2023-07-22T04:15:46;8.80;;;5.10;;
11010;SDS011;5558;42.702;23.178;2023-07-22T04:18:13;11.77;;;5.60;;
11010;SDS011;5558;42.702;23.178;2023-07-22T04:20:41;9.03;;;5.07;;
11010;SDS011;5558;42.702;23.178;2023-07-22T04:23:07;7.57;;;5.10;;
11010;SDS011;5558;42.702;23.178;2023-07-22T04:25:38;8.23;;;5.07;;
11010;SDS011;5558;42.702;23.178;2023-07-22T04:28:05;10.13;;;4.97;;
11010;SDS011;5558;42.702;23.178;2023-07-22T04:30:33;9.03;;;5.07;;
11010;SDS011;5558;42.702;23.178;2023-07-22T04:33:01;9.80;;;5.10;;
11010;SDS011;5558;42.702;23.178;2023-07-22T04:35:31;7.22;;;4.63;;
11010;SDS011;5558;42.702;23.178;2023-07-22T04:37:58;8.27;;;4.75;;
11010;SDS011;5558;42.702;23.178;2023-07-22T04:40:25;8.70;;;4.68;;
11010;SDS011;5558;42.702;23.178;2023-07-22T04:42:52;7.60;;;4.60;;
11010;SDS011;5558;42.702;23.178;2023-07-22T04:45:18;8.52;;;4.65;;
11010;SDS011;5558;42.702;23.178;2023-07-22T04:47:45;12.88;;;5.18;;
11010;SDS011;5558;42.702;23.178;2023-07-22T04:50:15;9.10;;;4.70;;
11010;SDS011;5558;42.702;23.178;2023-07-22T04:52:42;8.73;;;4.80;;
11010;SDS011;5558;42.702;23.178;2023-07-22T04:55:11;9.38;;;5.10;;
11010;SDS011;5558;42.702;23.178;2023-07-22T04:57:38;9.88;;;5.60;;
11010;SDS011;5558;42.702;23.178;2023-07-22T05:00:07;10.30;;;5.45;;
11010;SDS011;5558;42.702;23.178;2023-07-22T05:02:38;7.88;;;5.07;;
11010;SDS011;5558;42.702;23.178;2023-07-22T05:05:05;7.32;;;4.38;;
11010;SDS011;5558;42.702;23.178;2023-07-22T05:07:34;5.88;;;4.45;;
11010;SDS011;5558;42.702;23.178;2023-07-22T05:10:00;9.90;;;4.55;;
11010;SDS011;5558;42.702;23.178;2023-07-22T05:12:27;5.63;;;4.40;;
11010;SDS011;5558;42.702;23.178;2023-07-22T05:14:54;6.03;;;4.38;;
11010;SDS011;5558;42.702;23.178;2023-07-22T05:17:21;9.18;;;4.60;;
11010;SDS011;5558;42.702;23.178;2023-07-22T05:19:47;8.25;;;4.60;;
11010;SDS011;5558;42.702;23.178;2023-07-22T05:22:14;7.35;;;4.70;;
11010;SDS011;5558;42.702;23.178;2023-07-22T05:24:43;6.80;;;4.53;;
11010;SDS011;5558;42.702;23.178;2023-07-22T05:27:10;9.82;;;4.30;;
11010;SDS011;5558;42.702;23.178;2023-07-22T05:29:36;12.02;;;4.75;;
11010;SDS011;5558;42.702;23.178;2023-07-22T05:32:03;7.50;;;4.30;;
11010;SDS011;5558;42.702;23.178;2023-07-22T05:34:30;8.15;;;4.30;;
11010;SDS011;5558;42.702;23.178;2023-07-22T05:36:57;7.93;;;4.63;;
11010;SDS011;5558;42.702;23.178;2023-07-22T05:39:24;7.60;;;4.60;;
11010;SDS011;5558;42.702;23.178;2023-07-22T05:41:52;9.07;;;4.47;;
11010;SDS011;5558;42.702;23.178;2023-07-22T05:44:19;10.68;;;4.88;;
11010;SDS011;5558;42.702;23.178;2023-07-22T05:46:46;6.95;;;5.22;;
11010;SDS011;5558;42.702;23.178;2023-07-22T05:49:13;6.93;;;5.00;;
11010;SDS011;5558;42.702;23.178;2023-07-22T05:51:39;10.18;;;4.95;;
11010;SDS011;5558;42.702;23.178;2023-07-22T05:54:06;6.70;;;4.97;;
11010;SDS011;5558;42.702;23.178;2023-07-22T05:56:33;10.23;;;4.80;;
11010;SDS011;5558;42.702;23.178;2023-07-22T05:59:01;7.53;;;4.82;;
11010;SDS011;5558;42.702;23.178;2023-07-22T06:01:27;9.85;;;5.30;;
11010;SDS011;5558;42.702;23.178;2023-07-22T06:03:54;8.82;;;5.00;;
11010;SDS011;5558;42.702;23.178;2023-07-22T06:06:21;8.75;;;4.65;;
11010;SDS011;5558;42.702;23.178;2023-07-22T06:08:47;7.97;;;4.65;;
11010;SDS011;5558;42.702;23.178;2023-07-22T06:11:14;10.50;;;5.03;;
11010;SDS011;5558;42.702;23.178;2023-07-22T06:13:41;9.05;;;5.03;;
11010;SDS011;5558;42.702;23.178;2023-07-22T06:16:09;9.15;;;5.15;;
11010;SDS011;5558;42.702;23.178;2023-07-22T06:18:36;8.98;;;5.28;;
11010;SDS011;5558;42.702;23.178;2023-07-22T06:21:02;9.98;;;5.10;;
11010;SDS011;5558;42.702;23.178;2023-07-22T06:23:30;7.82;;;5.00;;
11010;SDS011;5558;42.702;23.178;2023-07-22T06:25:57;9.30;;;4.88;;
11010;SDS011;5558;42.702;23.178;2023-07-22T06:28:23;10.10;;;5.70;;
11010;SDS011;5558;42.702;23.178;2023-07-22T06:30:50;10.07;;;5.25;;
11010;SDS011;5558;42.702;23.178;2023-07-22T06:33:18;12.55;;;5.68;;
11010;SDS011;5558;42.702;23.178;2023-07-22T06:35:45;8.32;;;5.53;;
11010;SDS011;5558;42.702;23.178;2023-07-22T06:38:12;12.13;;;5.25;;
11010;SDS011;5558;42.702;23.178;2023-07-22T06:40:39;7.28;;;5.07;;
11010;SDS011;5558;42.702;23.178;2023-07-22T06:43:05;9.45;;;5.40;;
11010;SDS011;5558;42.702;23.178;2023-07-22T06:45:32;10.50;;;5.18;;
11010;SDS011;5558;42.702;23.178;2023-07-22T06:47:59;10.15;;;5.15;;
11010;SDS011;5558;42.702;23.178;2023-07-22T06:50:27;7.80;;;4.90;;
11010;SDS011;5558;42.702;23.178;2023-07-22T06:52:53;12.98;;;5.28;;
11010;SDS011;5558;42.702;23.178;2023-07-22T06:55:20;8.98;;;5.30;;
11010;SDS011;5558;42.702;23.178;2023-07-22T06:57:48;8.60;;;5.35;;
11010;SDS011;5558;42.702;23.178;2023-07-22T07:00:15;9.23;;;5.53;;
11010;SDS011;5558;42.702;23.178;2023-07-22T07:02:42;8.90;;;5.35;;
11010;SDS011;5558;42.702;23.178;2023-07-22T07:05:08;9.82;;;5.78;;
11010;SDS011;5558;42.702;23.178;2023-07-22T07:07:37;10.18;;;5.55;;
11010;SDS011;5558;42.702;23.178;2023-07-22T07:10:04;8.82;;;5.88;;
11010;SDS011;5558;42.702;23.178;2023-07-22T07:12:32;8.55;;;5.28;;
11010;SDS011;5558;42.702;23.178;2023-07-22T07:14:59;8.05;;;5.00;;
11010;SDS011;5558;42.702;23.178;2023-07-22T07:17:26;7.65;;;5.53;;
11010;SDS011;5558;42.702;23.178;2023-07-22T07:19:53;7.78;;;5.32;;
11010;SDS011;5558;42.702;23.178;2023-07-22T07:22:19;12.38;;;5.75;;
11010;SDS011;5558;42.702;23.178;2023-07-22T07:24:47;8.30;;;5.60;;
11010;SDS011;5558;42.702;23.178;2023-07-22T07:27:14;8.60;;;5.50;;
11010;SDS011;5558;42.702;23.178;2023-07-22T07:29:41;9.25;;;5.40;;
11010;SDS011;5558;42.702;23.178;2023-07-22T07:32:07;11.07;;;5.75;;
11010;SDS011;5558;42.702;23.178;2023-07-22T07:34:35;9.55;;;5.65;;
11010;SDS011;5558;42.702;23.178;2023-07-22T07:37:01;9.73;;;6.10;;
11010;SDS011;5558;42.702;23.178;2023-07-22T07:39:28;12.00;;;6.22;;
11010;SDS011;5558;42.702;23.178;2023-07-22T07:41:56;10.10;;;5.95;;
11010;SDS011;5558;42.702;23.178;2023-07-22T07:44:23;11.13;;;6.05;;
11010;SDS011;5558;42.702;23.178;2023-07-22T07:46:50;9.45;;;5.90;;
11010;SDS011;5558;42.702;23.178;2023-07-22T07:49:17;8.93;;;5.90;;
11010;SDS011;5558;42.702;23.178;2023-07-22T07:51:44;10.48;;;6.22;;
11010;SDS011;5558;42.702;23.178;2023-07-22T07:54:10;11.55;;;5.95;;
11010;SDS011;5558;42.702;23.178;2023-07-22T07:56:37;11.60;;;6.37;;
11010;SDS011;5558;42.702;23.178;2023-07-22T07:59:05;8.13;;;6.17;;
11010;SDS011;5558;42.702;23.178;2023-07-22T08:01:34;10.63;;;6.47;;
11010;SDS011;5558;42.702;23.178;2023-07-22T08:04:00;12.20;;;6.10;;
11010;SDS011;5558;42.702;23.178;2023-07-22T08:06:27;11.27;;;6.17;;
11010;SDS011;5558;42.702;23.178;2023-07-22T08:08:54;11.27;;;6.30;;
11010;SDS011;5558;42.702;23.178;2023-07-22T08:11:20;12.77;;;7.10;;
11010;SDS011;5558;42.702;23.178;2023-07-22T08:13:47;9.70;;;6.23;;
11010;SDS011;5558;42.702;23.178;2023-07-22T08:16:17;9.63;;;6.83;;
11010;SDS011;5558;42.702;23.178;2023-07-22T08:18:44;8.90;;;6.53;;
11010;SDS011;5558;42.702;23.178;2023-07-22T08:21:12;12.30;;;6.47;;
11010;SDS011;5558;42.702;23.178;2023-07-22T08:23:39;13.73;;;6.90;;
11010;SDS011;5558;42.702;23.178;2023-07-22T08:26:05;11.30;;;6.50;;
11010;SDS011;5558;42.702;23.178;2023-07-22T08:28:32;10.50;;;6.17;;
11010;SDS011;5558;42.702;23.178;2023-07-22T08:30:59;12.88;;;6.47;;
11010;SDS011;5558;42.702;23.178;2023-07-22T08:33:28;12.60;;;6.90;;
11010;SDS011;5558;42.702;23.178;2023-07-22T08:35:55;13.20;;;7.03;;
11010;SDS011;5558;42.702;23.178;2023-07-22T08:38:21;10.93;;;6.60;;
11010;SDS011;5558;42.702;23.178;2023-07-22T08:40:48;10.67;;;7.00;;
11010;SDS011;5558;42.702;23.178;2023-07-22T08:43:19;12.10;;;7.13;;
11010;SDS011;5558;42.702;23.178;2023-07-22T08:45:46;14.10;;;7.83;;
11010;SDS011;5558;42.702;23.178;2023-07-22T08:48:15;11.20;;;7.67;;
11010;SDS011;5558;42.702;23.178;2023-07-22T08:50:45;13.43;;;7.27;;
11010;SDS011;5558;42.702;23.178;2023-07-22T08:53:16;12.53;;;7.53;;
11010;SDS011;5558;42.702;23.178;2023-07-22T08:55:45;13.23;;;7.47;;
11010;SDS011;5558;42.702;23.178;2023-07-22T08:58:13;10.60;;;7.87;;
11010;SDS011;5558;42.702;23.178;2023-07-22T09:00:40;15.97;;;7.47;;
11010;SDS011;5558;42.702;23.178;2023-07-22T09:03:07;12.37;;;7.30;;
11010;SDS011;5558;42.702;23.178;2023-07-22T09:05:35;16.10;;;6.83;;
11010;SDS011;5558;42.702;23.178;2023-07-22T09:08:05;15.93;;;6.23;;
11010;SDS011;5558;42.702;23.178;2023-07-22T09:10:33;14.27;;;5.73;;
11010;SDS011;5558;42.702;23.178;2023-07-22T09:13:00;14.90;;;6.03;;
11010;SDS011;5558;42.702;23.178;2023-07-22T09:15:29;15.85;;;5.82;;
11010;SDS011;5558;42.702;23.178;2023-07-22T09:17:57;15.57;;;5.47;;
11010;SDS011;5558;42.702;23.178;2023-07-22T09:20:24;14.68;;;5.55;;
11010;SDS011;5558;42.702;23.178;2023-07-22T09:22:53;16.73;;;5.88;;
11010;SDS011;5558;42.702;23.178;2023-07-22T09:25:22;18.15;;;5.78;;
11010;SDS011;5558;42.702;23.178;2023-07-22T09:27:51;13.98;;;5.50;;
11010;SDS011;5558;42.702;23.178;2023-07-22T09:30:20;14.60;;;5.47;;
11010;SDS011;5558;42.702;23.178;2023-07-22T09:32:48;13.80;;;5.80;;
11010;SDS011;5558;42.702;23.178;2023-07-22T09:35:15;15.30;;;5.78;;
11010;SDS011;5558;42.702;23.178;2023-07-22T09:37:43;13.95;;;5.53;;
11010;SDS011;5558;42.702;23.178;2023-07-22T09:40:16;17.83;;;5.78;;
11010;SDS011;5558;42.702;23.178;2023-07-22T09:42:47;14.00;;;5.57;;
11010;SDS011;5558;42.702;23.178;2023-07-22T09:45:15;15.98;;;5.97;;
11010;SDS011;5558;42.702;23.178;2023-07-22T09:47:42;15.43;;;5.47;;
11010;SDS011;5558;42.702;23.178;2023-07-22T09:50:10;15.15;;;5.55;;
11010;SDS011;5558;42.702;23.178;2023-07-22T09:52:42;23.58;;;5.82;;
11010;SDS011;5558;42.702;23.178;2023-07-22T09:55:10;17.13;;;5.90;;
11010;SDS011;5558;42.702;23.178;2023-07-22T09:57:38;16.25;;;5.75;;
11010;SDS011;5558;42.702;23.178;2023-07-22T10:00:12;15.35;;;5.90;;
11010;SDS011;5558;42.702;23.178;2023-07-22T10:02:41;24.65;;;6.60;;
11010;SDS011;5558;42.702;23.178;2023-07-22T10:05:11;13.20;;;5.72;;
11010;SDS011;5558;42.702;23.178;2023-07-22T10:07:42;12.43;;;5.68;;
11010;SDS011;5558;42.702;23.178;2023-07-22T10:10:11;17.65;;;5.80;;
11010;SDS011;5558;42.702;23.178;2023-07-22T10:12:39;21.83;;;6.20;;
11010;SDS011;5558;42.702;23.178;2023-07-22T10:15:07;16.52;;;5.95;;
11010;SDS011;5558;42.702;23.178;2023-07-22T10:17:36;17.60;;;5.90;;
11010;SDS011;5558;42.702;23.178;2023-07-22T10:20:04;20.60;;;6.07;;
11010;SDS011;5558;42.702;23.178;2023-07-22T10:22:33;18.05;;;6.00;;
11010;SDS011;5558;42.702;23.178;2023-07-22T10:25:01;19.23;;;5.75;;
11010;SDS011;5558;42.702;23.178;2023-07-22T10:27:31;18.48;;;5.45;;
11010;SDS011;5558;42.702;23.178;2023-07-22T10:29:58;17.40;;;6.07;;
11010;SDS011;5558;42.702;23.178;2023-07-22T10:32:30;21.70;;;5.72;;
11010;SDS011;5558;42.702;23.178;2023-07-22T10:34:59;17.73;;;5.80;;
11010;SDS011;5558;42.702;23.178;2023-07-22T10:37:29;15.45;;;5.55;;
11010;SDS011;5558;42.702;23.178;2023-07-22T10:39:58;18.20;;;5.72;;
11010;SDS011;5558;42.702;23.178;2023-07-22T10:42:26;20.92;;;6.10;;
11010;SDS011;5558;42.702;23.178;2023-07-22T10:44:54;21.85;;;5.72;;
11010;SDS011;5558;42.702;23.178;2023-07-22T10:47:33;20.52;;;5.38;;
11010;SDS011;5558;42.702;23.178;2023-07-22T10:50:09;23.80;;;6.07;;
11010;SDS011;5558;42.702;23.178;2023-07-22T10:52:42;19.27;;;5.95;;
11010;SDS011;5558;42.702;23.178;2023-07-22T10:55:16;16.95;;;5.65;;
11010;SDS011;5558;42.702;23.178;2023-07-22T10:57:47;22.52;;;6.38;;
11010;SDS011;5558;42.702;23.178;2023-07-22T11:00:18;21.52;;;5.85;;
11010;SDS011;5558;42.702;23.178;2023-07-22T11:02:47;17.67;;;5.72;;
11010;SDS011;5558;42.702;23.178;2023-07-22T11:05:48;27.65;;;5.82;;
11010;SDS011;5558;42.702;23.178;2023-07-22T11:08:29;18.10;;;5.78;;
11010;SDS011;5558;42.702;23.178;2023-07-22T11:11:02;18.55;;;5.47;;
11010;SDS011;5558;42.702;23.178;2023-07-22T11:13:29;24.85;;;6.20;;
11010;SDS011;5558;42.702;23.178;2023-07-22T11:15:59;21.33;;;5.63;;
11010;SDS011;5558;42.702;23.178;2023-07-22T11:18:36;22.48;;;5.75;;
11010;SDS011;5558;42.702;23.178;2023-07-22T11:21:10;17.13;;;5.50;;
11010;SDS011;5558;42.702;23.178;2023-07-22T11:23:39;21.40;;;6.35;;
11010;SDS011;5558;42.702;23.178;2023-07-22T11:26:06;20.02;;;5.43;;
11010;SDS011;5558;42.702;23.178;2023-07-22T11:28:33;18.40;;;5.68;;
11010;SDS011;5558;42.702;23.178;2023-07-22T11:31:00;18.67;;;5.35;;
11010;SDS011;5558;42.702;23.178;2023-07-22T11:33:37;20.08;;;5.10;;
11010;SDS011;5558;42.702;23.178;2023-07-22T11:36:04;22.98;;;5.97;;
11010;SDS011;5558;42.702;23.178;2023-07-22T11:38:33;18.67;;;5.35;;
11010;SDS011;5558;42.702;23.178;2023-07-22T11:41:00;19.42;;;5.88;;
11010;SDS011;5558;42.702;23.178;2023-07-22T11:43:28;16.42;;;5.20;;
11010;SDS011;5558;42.702;23.178;2023-07-22T11:45:54;16.67;;;5.97;;
11010;SDS011;5558;42.702;23.178;2023-07-22T11:48:21;19.50;;;5.85;;
11010;SDS011;5558;42.702;23.178;2023-07-22T11:50:48;20.95;;;5.65;;
11010;SDS011;5558;42.702;23.178;2023-07-22T11:53:15;18.30;;;5.50;;
11010;SDS011;5558;42.702;23.178;2023-07-22T11:55:45;21.15;;;5.93;;
11010;SDS011;5558;42.702;23.178;2023-07-22T11:58:13;22.70;;;5.80;;
11010;SDS011;5558;42.702;23.178;2023-07-22T12:00:42;19.75;;;5.72;;
11010;SDS011;5558;42.702;23.178;2023-07-22T12:03:09;14.88;;;5.50;;
11010;SDS011;5558;42.702;23.178;2023-07-22T12:05:35;22.00;;;6.63;;
11010;SDS011;5558;42.702;23.178;2023-07-22T12:08:03;21.63;;;6.07;;
11010;SDS011;5558;42.702;23.178;2023-07-22T12:10:31;23.73;;;6.03;;
11010;SDS011;5558;42.702;23.178;2023-07-22T12:13:01;19.52;;;6.10;;
11010;SDS011;5558;42.702;23.178;2023-07-22T12:15:29;20.85;;;5.50;;
11010;SDS011;5558;42.702;23.178;2023-07-22T12:17:56;16.55;;;5.38;;
11010;SDS011;5558;42.702;23.178;2023-07-22T12:20:25;19.88;;;5.80;;
11010;SDS011;5558;42.702;23.178;2023-07-22T12:22:52;17.98;;;5.35;;
11010;SDS011;5558;42.702;23.178;2023-07-22T12:25:19;22.42;;;5.82;;
11010;SDS011;5558;42.702;23.178;2023-07-22T12:27:46;24.60;;;6.35;;
11010;SDS011;5558;42.702;23.178;2023-07-22T12:30:14;24.13;;;5.80;;
11010;SDS011;5558;42.702;23.178;2023-07-22T12:32:43;16.40;;;5.70;;
11010;SDS011;5558;42.702;23.178;2023-07-22T12:35:10;19.02;;;5.55;;
11010;SDS011;5558;42.702;23.178;2023-07-22T12:37:38;16.00;;;5.35;;
11010;SDS011;5558;42.702;23.178;2023-07-22T12:40:06;21.05;;;5.78;;
11010;SDS011;5558;42.702;23.178;2023-07-22T12:42:33;20.98;;;5.78;;
11010;SDS011;5558;42.702;23.178;2023-07-22T12:45:00;19.15;;;5.50;;
11010;SDS011;5558;42.702;23.178;2023-07-22T12:47:28;24.27;;;5.68;;
11010;SDS011;5558;42.702;23.178;2023-07-22T12:49:55;20.60;;;5.75;;
11010;SDS011;5558;42.702;23.178;2023-07-22T12:52:22;55.63;;;7.85;;
11010;SDS011;5558;42.702;23.178;2023-07-22T12:54:48;18.00;;;5.57;;
11010;SDS011;5558;42.702;23.178;2023-07-22T12:57:15;20.27;;;5.18;;
11010;SDS011;5558;42.702;23.178;2023-07-22T12:59:42;19.77;;;5.38;;
11010;SDS011;5558;42.702;23.178;2023-07-22T13:02:08;19.63;;;5.38;;
11010;SDS011;5558;42.702;23.178;2023-07-22T13:04:36;25.45;;;5.70;;
11010;SDS011;5558;42.702;23.178;2023-07-22T13:07:03;37.25;;;6.57;;
11010;SDS011;5558;42.702;23.178;2023-07-22T13:09:30;21.40;;;5.28;;
11010;SDS011;5558;42.702;23.178;2023-07-22T13:11:57;18.10;;;5.35;;
11010;SDS011;5558;42.702;23.178;2023-07-22T13:14:24;23.67;;;5.82;;
11010;SDS011;5558;42.702;23.178;2023-07-22T13:16:50;22.20;;;5.43;;
11010;SDS011;5558;42.702;23.178;2023-07-22T13:19:17;21.25;;;5.85;;
11010;SDS011;5558;42.702;23.178;2023-07-22T13:21:45;24.50;;;6.20;;
11010;SDS011;5558;42.702;23.178;2023-07-22T13:24:12;23.38;;;5.70;;
11010;SDS011;5558;42.702;23.178;2023-07-22T13:26:39;22.17;;;5.95;;
11010;SDS011;5558;42.702;23.178;2023-07-22T13:29:06;25.30;;;6.10;;
11010;SDS011;5558;42.702;23.178;2023-07-22T13:31:34;20.25;;;5.50;;
11010;SDS011;5558;42.702;23.178;2023-07-22T13:34:00;21.45;;;5.68;;
11010;SDS011;5558;42.702;23.178;2023-07-22T13:36:27;22.67;;;5.80;;
11010;SDS011;5558;42.702;23.178;2023-07-22T13:38:55;22.35;;;5.47;;
11010;SDS011;5558;42.702;23.178;2023-07-22T13:41:22;24.25;;;5.57;;
11010;SDS011;5558;42.702;23.178;2023-07-22T13:43:48;17.63;;;5.18;;
11010;SDS011;5558;42.702;23.178;2023-07-22T13:46:16;22.85;;;5.90;;
11010;SDS011;5558;42.702;23.178;2023-07-22T13:48:44;26.10;;;5.90;;
11010;SDS011;5558;42.702;23.178;2023-07-22T13:51:11;20.48;;;5.82;;
11010;SDS011;5558;42.702;23.178;2023-07-22T13:53:38;20.02;;;5.80;;
11010;SDS011;5558;42.702;23.178;2023-07-22T13:56:06;17.58;;;5.45;;
11010;SDS011;5558;42.702;23.178;2023-07-22T13:58:33;22.55;;;5.57;;
11010;SDS011;5558;42.702;23.178;2023-07-22T14:00:59;22.25;;;5.90;;
11010;SDS011;5558;42.702;23.178;2023-07-22T14:03:26;23.10;;;5.70;;
11010;SDS011;5558;42.702;23.178;2023-07-22T14:05:53;24.25;;;5.50;;
11010;SDS011;5558;42.702;23.178;2023-07-22T14:08:20;23.42;;;5.65;;
11010;SDS011;5558;42.702;23.178;2023-07-22T14:10:46;22.00;;;5.95;;
11010;SDS011;5558;42.702;23.178;2023-07-22T14:13:14;24.77;;;5.03;;
11010;SDS011;5558;42.702;23.178;2023-07-22T14:15:41;23.55;;;5.68;;
11010;SDS011;5558;42.702;23.178;2023-07-22T14:18:08;20.25;;;5.40;;
11010;SDS011;5558;42.702;23.178;2023-07-22T14:20:35;21.58;;;5.45;;
11010;SDS011;5558;42.702;23.178;2023-07-22T14:23:01;22.65;;;5.53;;
11010;SDS011;5558;42.702;23.178;2023-07-22T14:25:28;23.23;;;5.70;;
11010;SDS011;5558;42.702;23.178;2023-07-22T14:27:55;30.50;;;6.57;;
11010;SDS011;5558;42.702;23.178;2023-07-22T14:30:23;25.70;;;6.00;;
11010;SDS011;5558;42.702;23.178;2023-07-22T14:32:50;24.88;;;5.95;;
11010;SDS011;5558;42.702;23.178;2023-07-22T14:35:17;29.83;;;6.15;;
11010;SDS011;5558;42.702;23.178;2023-07-22T14:37:43;23.67;;;6.03;;
11010;SDS011;5558;42.702;23.178;2023-07-22T14:40:11;25.13;;;6.00;;
11010;SDS011;5558;42.702;23.178;2023-07-22T14:42:38;21.85;;;5.70;;